Time;durP1;ratioP1;P1;durP2;ratioP2;P2;SDS_P1;SDS_P2;PMS_P1;PMS_P2;Temp;Humidity;BMP_temperature;BMP_pressure;BME280_temperature;BME280_humidity;BME280_pressure;Samples;Min_cycle;Max_cycle;Signal;HPM_P1;HPM_P2
2023/07/28 04:01:47;;;;;;;5.70;2.90;;;;;;;15.68;63.33;98407.41;108197;1257;106878;-91
2023/07/28 04:05:04;;;;;;;4.60;2.70;;;;;;;15.65;63.27;98403.81;108213;1246;96626;-91
2023/07/28 04:07:31;;;;;;;8.80;3.30;;;;;;;15.63;63.31;98402.46;108121;1242;96559;-91
2023/07/28 04:10:16;;;;;;;;;;;;;;;;;;;;;
2023/07/28 04:13:40;;;;;;;8.70;3.00;;;;;;;15.55;63.36;98402.91;108164;1242;96638;-91
2023/07/28 04:16:13;;;;;;;6.40;3.10;;;;;;;15.56;63.42;98400.44;108108;1240;107485;-91
2023/07/28 04:18:43;;;;;;;7.30;2.90;;;;;;;15.58;63.35;98407.77;108730;1237;96693;-91
2023/07/28 04:24:53;;;;;;;5.40;2.80;;;;;;;15.59;63.51;98398.25;108734;1239;109904;-90
2023/07/28 04:27:54;;;;;;;;;;;;;;;;;;;;;
2023/07/28 04:30:51;;;;;;;;;;;;;;;;;;;;;
2023/07/28 04:34:51;;;;;;;8.40;3.00;;;;;;;15.52;63.58;98395.76;109304;1237;96496;-90
2023/07/28 04:37:47;;;;;;;7.20;2.60;;;;;;;15.50;63.52;98385.56;108248;1242;97185;-89
2023/07/28 04:40:17;;;;;;;7.50;3.00;;;;;;;15.49;63.53;98390.29;108385;1244;109898;-91
2023/07/28 04:42:52;;;;;;;7.20;2.80;;;;;;;15.49;63.55;98397.96;108874;1238;97715;-90
2023/07/28 04:50:17;;;;;;;6.70;2.80;;;;;;;15.49;63.62;98402.81;110065;1236;96648;-91
2023/07/28 04:53:32;;;;;;;5.30;2.70;;;;;;;15.51;63.64;98413.66;109722;1240;96551;-91
2023/07/28 04:59:02;;;;;;;6.30;2.80;;;;;;;15.54;63.65;98416.18;109641;1237;96556;-89
2023/07/28 05:01:32;;;;;;;6.00;2.70;;;;;;;15.55;63.67;98415.59;108775;1244;96605;-90
2023/07/28 05:04:00;;;;;;;8.90;3.10;;;;;;;15.56;63.78;98415.61;109209;1235;96556;-90
2023/07/28 05:06:29;;;;;;;6.50;3.30;;;;;;;15.56;63.68;98415.86;109178;1235;96535;-90
2023/07/28 05:09:02;;;;;;;7.90;3.10;;;;;;;15.55;63.77;98411.66;109080;1232;109803;-89
2023/07/28 05:11:29;;;;;;;7.70;3.00;;;;;;;15.57;63.79;98402.14;109551;1235;97431;-91
2023/07/28 05:13:55;;;;;;;4.90;3.10;;;;;;;15.58;63.68;98399.17;109785;1232;96677;-89
2023/07/28 05:16:25;;;;;;;7.20;2.90;;;;;;;15.61;63.76;98397.29;109654;1237;96643;-90
2023/07/28 05:18:56;;;;;;;6.50;3.00;;;;;;;15.67;63.81;98398.09;109319;1232;96487;-90
2023/07/28 05:21:28;;;;;;;7.10;3.00;;;;;;;15.74;63.80;98393.98;109270;1238;109451;-90
2023/07/28 05:23:55;;;;;;;5.40;3.00;;;;;;;15.84;63.76;98385.11;109377;1238;96576;-90
2023/07/28 05:26:22;;;;;;;6.00;2.90;;;;;;;15.91;63.71;98387.20;109403;1232;97471;-91
2023/07/28 05:29:13;;;;;;;4.20;2.60;;;;;;;15.99;63.79;98385.70;109025;1238;96672;-91
2023/07/28 05:31:43;;;;;;;6.80;2.80;;;;;;;16.08;63.77;98379.92;108696;1238;96566;-90
2023/07/28 05:34:12;;;;;;;7.90;3.30;;;;;;;16.19;63.95;98375.31;108828;1244;108894;-90
2023/07/28 05:36:39;;;;;;;7.20;2.90;;;;;;;16.33;63.82;98372.26;109110;1232;96573;-90
2023/07/28 05:39:11;;;;;;;5.40;2.80;;;;;;;16.50;63.88;98367.15;109513;1234;96569;-90
2023/07/28 05:41:43;;;;;;;7.00;2.70;;;;;;;16.69;63.93;98364.61;108919;1238;96562;-91
2023/07/28 05:44:10;;;;;;;6.30;2.60;;;;;;;16.85;63.80;98360.34;109038;1244;96594;-90
2023/07/28 05:46:43;;;;;;;10.20;3.10;;;;;;;16.95;63.75;98367.66;108995;1238;97106;-90
2023/07/28 05:49:09;;;;;;;6.30;2.90;;;;;;;17.02;63.72;98371.13;108944;1232;96618;-90
2023/07/28 05:51:38;;;;;;;8.60;3.10;;;;;;;17.02;63.46;98365.19;108697;1245;97101;-90
2023/07/28 05:54:12;;;;;;;6.90;2.90;;;;;;;16.99;63.56;98362.40;109697;1232;96563;-90
2023/07/28 05:57:12;;;;;;;6.80;2.90;;;;;;;17.00;63.64;98357.48;109122;1235;96567;-90
2023/07/28 06:03:58;;;;;;;8.00;2.90;;;;;;;17.00;63.61;98358.23;108332;1234;96648;-90
2023/07/28 06:22:24;;;;;;;;;;;;;;;17.25;63.75;98338.36;108913;1235;96602;-90
2023/07/28 06:32:03;;;;;;;15.50;3.40;;;;;;;17.44;63.70;98333.23;108627;1234;96563;-89
2023/07/28 06:34:30;;;;;;;8.30;2.80;;;;;;;17.55;63.69;98328.98;108678;1241;109789;-90
2023/07/28 06:36:57;;;;;;;30.50;5.50;;;;;;;17.66;63.63;98329.00;108695;1232;96560;-91
2023/07/28 06:39:33;;;;;;;16.30;4.00;;;;;;;17.74;63.60;98324.83;108703;1244;97100;-89
2023/07/28 06:43:30;;;;;;;10.50;3.20;;;;;;;17.88;63.52;98327.20;108851;1238;96602;-90
2023/07/28 06:45:57;;;;;;;4.60;2.50;;;;;;;17.95;63.47;98324.93;108525;1244;96480;-90
2023/07/28 06:48:24;;;;;;;13.50;3.60;;;;;;;18.02;63.52;98318.98;108474;1244;96598;-90
2023/07/28 06:50:54;;;;;;;5.10;2.80;;;;;;;18.07;63.47;98320.15;108439;1238;96629;-89
2023/07/28 06:53:21;;;;;;;25.40;4.20;;;;;;;18.12;63.39;98323.42;108031;1246;107098;-90
2023/07/28 06:55:54;;;;;;;6.80;3.00;;;;;;;18.16;63.55;98323.65;108425;1234;96663;-89
2023/07/28 06:58:23;;;;;;;8.80;3.10;;;;;;;18.20;63.50;98326.24;108371;1237;96562;-89
2023/07/28 07:00:50;;;;;;;7.50;2.90;;;;;;;18.24;63.33;98325.59;108388;1232;109551;-88
2023/07/28 07:03:17;;;;;;;7.10;2.90;;;;;;;18.28;63.43;98318.13;108432;1244;97413;-89
2023/07/28 07:05:44;;;;;;;8.70;2.80;;;;;;;18.29;63.32;98323.16;108458;1235;96572;-89
2023/07/28 07:08:14;;;;;;;13.10;3.30;;;;;;;18.32;63.37;98325.07;108448;1244;96585;-89
2023/07/28 07:10:47;;;;;;;5.20;2.90;;;;;;;18.38;63.39;98326.11;108405;1235;96566;-90
2023/07/28 07:13:14;;;;;;;5.20;3.00;;;;;;;18.44;63.43;98327.77;108618;1232;110103;-90
2023/07/28 07:15:42;;;;;;;21.30;4.30;;;;;;;18.49;63.37;98327.21;108865;1235;96662;-89
2023/07/28 07:18:08;;;;;;;17.60;4.00;;;;;;;18.55;63.45;98329.30;108509;1244;96711;-89
2023/07/28 07:20:37;;;;;;;15.60;4.00;;;;;;;18.60;63.22;98330.25;108820;1245;96563;-90
2023/07/28 07:23:05;;;;;;;8.10;2.70;;;;;;;18.62;63.19;98330.70;109124;1232;96623;-90
2023/07/28 07:25:32;;;;;;;7.70;3.10;;;;;;;18.66;63.11;98330.40;109315;1232;96576;-90
2023/07/28 07:27:59;;;;;;;8.30;3.10;;;;;;;18.68;63.08;98335.61;108796;1232;97411;-90
2023/07/28 07:30:28;;;;;;;28.90;6.00;;;;;;;18.68;63.16;98339.67;108672;1232;96573;-90
2023/07/28 07:32:56;;;;;;;7.00;2.80;;;;;;;18.69;62.98;98340.11;108976;1232;96502;-90
2023/07/28 07:35:22;;;;;;;5.30;2.70;;;;;;;18.71;62.91;98336.98;109090;1234;97705;-90
2023/07/28 07:37:52;;;;;;;6.80;3.20;;;;;;;18.73;62.94;98340.25;109012;1241;96648;-90
2023/07/28 07:40:18;;;;;;;10.40;3.70;;;;;;;18.73;62.89;98341.38;109184;1237;96493;-90
2023/07/28 07:42:49;;;;;;;4.80;2.20;;;;;;;18.73;62.56;98341.59;109282;1242;97061;-89
2023/07/28 07:45:16;;;;;;;5.50;2.80;;;;;;;18.71;62.72;98342.91;109327;1236;96605;-89
2023/07/28 07:47:54;;;;;;;5.40;2.70;;;;;;;18.73;62.85;98342.80;109398;1234;96572;-89
2023/07/28 07:50:21;;;;;;;7.20;3.00;;;;;;;18.76;62.69;98341.82;109416;1232;110013;-89
2023/07/28 07:52:48;;;;;;;5.20;2.80;;;;;;;18.76;62.59;98336.58;109235;1232;97245;-89
2023/07/28 07:55:18;;;;;;;6.80;2.80;;;;;;;18.76;62.57;98340.71;109039;1238;96573;-88
2023/07/28 07:57:45;;;;;;;7.10;2.80;;;;;;;18.77;62.70;98335.95;108820;1237;96572;-90
2023/07/28 08:00:13;;;;;;;6.60;3.10;;;;;;;18.78;62.55;98338.54;108717;1238;96569;-89
2023/07/28 08:02:41;;;;;;;4.30;2.50;;;;;;;18.78;62.54;98332.62;108673;1238;109865;-90
2023/07/28 08:05:15;;;;;;;7.30;2.90;;;;;;;18.78;62.53;98334.05;108792;1235;96883;-90
2023/07/28 08:07:47;;;;;;;5.40;3.00;;;;;;;18.80;62.51;98334.02;108576;1244;106831;-90
2023/07/28 08:10:17;;;;;;;7.10;3.20;;;;;;;18.81;62.50;98338.52;108599;1234;97692;-89
2023/07/28 08:12:46;;;;;;;4.60;2.70;;;;;;;18.83;62.32;98336.17;108472;1234;96543;-89
2023/07/28 08:15:14;;;;;;;5.70;2.80;;;;;;;18.86;62.29;98334.70;108479;1236;109770;-89
2023/07/28 08:17:41;;;;;;;7.30;3.00;;;;;;;18.89;62.29;98334.34;108397;1237;96988;-89
2023/07/28 08:20:13;;;;;;;4.90;2.90;;;;;;;18.93;62.27;98341.61;108637;1232;96668;-90
2023/07/28 08:22:40;;;;;;;5.50;2.60;;;;;;;18.98;62.46;98339.08;108558;1236;96681;-90
2023/07/28 08:25:08;;;;;;;7.60;3.10;;;;;;;19.03;62.49;98339.54;108575;1243;96486;-90
2023/07/28 08:27:41;;;;;;;7.00;2.80;;;;;;;19.07;62.24;98345.73;108562;1235;96585;-88
2023/07/28 08:30:09;;;;;;;7.30;3.30;;;;;;;19.11;62.27;98348.73;108632;1232;96567;-89
2023/07/28 08:32:36;;;;;;;6.40;3.10;;;;;;;19.14;62.26;98354.02;108752;1241;108083;-89
2023/07/28 08:35:03;;;;;;;7.10;3.40;;;;;;;19.17;62.10;98365.38;108559;1237;97383;-90
2023/07/28 08:37:33;;;;;;;6.80;3.20;;;;;;;19.18;62.19;98368.96;108800;1244;96541;-90
2023/07/28 08:47:45;;;;;;;9.20;3.10;;;;;;;19.19;62.15;98379.00;108348;1235;107472;-90
2023/07/28 08:50:36;;;;;;;10.10;3.50;;;;;;;19.23;62.30;98379.90;108246;1235;96638;-90
2023/07/28 08:53:03;;;;;;;;;;;;;;;19.24;62.18;98379.86;107974;1247;96736;-89
2023/07/28 08:55:35;;;;;;;8.00;3.30;;;;;;;19.18;62.13;98382.72;108028;1241;96665;-90
2023/07/28 08:58:29;;;;;;;15.90;3.60;;;;;;;19.15;62.13;98390.36;108198;1240;96487;-90
2023/07/28 09:01:00;;;;;;;8.60;3.20;;;;;;;19.09;62.15;98391.84;108587;1238;107440;-90
2023/07/28 09:03:29;;;;;;;13.60;3.60;;;;;;;19.01;62.15;98396.86;108197;1238;96834;-90
2023/07/28 09:06:02;;;;;;;8.80;3.40;;;;;;;18.95;62.15;98402.09;106349;1235;2576431;-91
2023/07/28 09:08:32;;;;;;;7.80;3.10;;;;;;;18.90;62.32;98406.09;108656;1239;109754;-88
2023/07/28 09:11:06;;;;;;;7.20;3.60;;;;;;;18.88;62.24;98408.94;108779;1236;97741;-90
2023/07/28 09:16:36;;;;;;;7.40;2.80;;;;;;;18.78;62.44;98409.25;109154;1230;96633;-91
2023/07/28 09:19:07;;;;;;;5.90;3.20;;;;;;;18.71;62.46;98412.95;109140;1243;96544;-90
2023/07/28 09:21:39;;;;;;;8.10;3.50;;;;;;;18.68;62.60;98412.23;108927;1237;109858;-90
2023/07/28 09:24:08;;;;;;;7.40;3.40;;;;;;;18.65;62.58;98413.70;109013;1234;96486;-91
2023/07/28 09:27:21;;;;;;;8.80;3.60;;;;;;;18.60;62.70;98416.06;109114;1244;107565;-91
2023/07/28 09:29:50;;;;;;;5.40;3.60;;;;;;;18.46;62.82;98421.42;108970;1234;96595;-92
2023/07/28 09:32:37;;;;;;;7.80;3.30;;;;;;;18.37;62.92;98418.14;109073;1237;97046;-89
2023/07/28 09:35:13;;;;;;;4.60;3.20;;;;;;;18.25;63.01;98420.77;109666;1236;109845;-91
2023/07/28 09:37:50;;;;;;;9.10;3.70;;;;;;;18.16;63.18;98418.19;109493;1237;96571;-93
2023/07/28 09:40:18;;;;;;;5.20;3.30;;;;;;;18.09;63.12;98417.02;108905;1234;107473;-89
2023/07/28 09:42:49;;;;;;;5.30;3.20;;;;;;;18.02;63.22;98413.86;108786;1232;96566;-89
2023/07/28 09:45:21;;;;;;;6.80;3.60;;;;;;;17.96;63.39;98413.38;108727;1237;96477;-90
2023/07/28 09:48:14;;;;;;;7.70;3.50;;;;;;;17.94;63.63;98411.20;108782;1234;109240;-89
2023/07/28 09:50:44;;;;;;;5.20;3.30;;;;;;;17.90;63.70;98415.73;108867;1234;96507;-90
2023/07/28 09:53:41;;;;;;;7.90;3.20;;;;;;;17.83;63.49;98414.59;108682;1232;107479;-90
2023/07/28 09:56:16;;;;;;;7.70;3.60;;;;;;;17.75;63.72;98414.66;109156;1237;96566;-91
2023/07/28 10:02:48;;;;;;;8.10;3.90;;;;;;;17.57;64.08;98417.66;108842;1238;109715;-91
2023/07/28 10:05:23;;;;;;;8.90;3.70;;;;;;;17.56;64.12;98416.68;108755;1236;96681;-91
2023/07/28 10:07:54;;;;;;;7.50;3.50;;;;;;;17.57;64.21;98416.22;108763;1244;107525;-91
2023/07/28 10:10:26;;;;;;;6.50;3.20;;;;;;;17.59;64.74;98413.16;108744;1237;96640;-90
2023/07/28 10:12:59;;;;;;;7.50;3.20;;;;;;;17.58;64.56;98404.11;108723;1234;96496;-90
2023/07/28 10:15:32;;;;;;;6.70;3.60;;;;;;;17.61;64.80;98400.67;108475;1237;109716;-90
2023/07/28 10:18:00;;;;;;;9.00;3.70;;;;;;;17.63;64.99;98392.80;108709;1245;96537;-91
2023/07/28 10:36:54;;;;;;;7.10;3.40;;;;;;;17.90;65.66;98384.73;109075;1236;96965;-91
2023/07/28 10:39:21;;;;;;;7.30;3.50;;;;;;;18.01;65.85;98389.81;108995;1234;107545;-89
2023/07/28 10:42:39;;;;;;;6.60;3.50;;;;;;;18.08;65.62;98383.39;109089;1230;96655;-91
2023/07/28 10:45:14;;;;;;;7.90;4.00;;;;;;;18.24;66.23;98382.31;109092;1232;96491;-91
2023/07/28 10:48:01;;;;;;;9.90;4.30;;;;;;;18.36;66.38;98377.19;109110;1235;109009;-91
2023/07/28 10:51:09;;;;;;;9.40;4.30;;;;;;;18.47;65.98;98376.94;108902;1237;96573;-93
2023/07/28 10:53:36;;;;;;;8.20;3.80;;;;;;;18.61;66.10;98381.04;108903;1232;107268;-92
2023/07/28 10:56:04;;;;;;;10.50;4.40;;;;;;;18.73;66.26;98373.53;108951;1237;97893;-91
2023/07/28 10:58:58;;;;;;;7.80;3.90;;;;;;;18.84;66.16;98373.75;108684;1232;97190;-92
2023/07/28 11:01:34;;;;;;;8.40;3.80;;;;;;;18.91;66.24;98374.57;108797;1237;109883;-92
2023/07/28 11:04:23;;;;;;;11.50;4.20;;;;;;;18.94;66.22;98372.63;109117;1232;96521;-92
2023/07/28 11:06:53;;;;;;;8.70;4.10;;;;;;;18.97;66.28;98376.35;108967;1232;107560;-91
2023/07/28 11:09:23;;;;;;;10.40;4.20;;;;;;;18.99;66.22;98368.41;108785;1236;96681;-91
2023/07/28 11:11:51;;;;;;;11.10;4.20;;;;;;;19.00;66.33;98373.30;108809;1231;96485;-91
2023/07/28 11:14:20;;;;;;;7.90;4.10;;;;;;;19.04;66.39;98372.27;108662;1232;109779;-92
2023/07/28 11:16:47;;;;;;;10.10;3.90;;;;;;;19.03;66.42;98367.70;108514;1238;96503;-91
2023/07/28 11:19:14;;;;;;;9.00;4.20;;;;;;;19.03;66.52;98368.31;108470;1244;96635;-92
2023/07/28 11:21:42;;;;;;;12.10;4.40;;;;;;;19.01;66.54;98370.89;108968;1232;96502;-91
2023/07/28 11:24:12;;;;;;;8.90;4.20;;;;;;;18.97;66.27;98378.20;109371;1232;97856;-89
2023/07/28 11:26:39;;;;;;;16.50;4.40;;;;;;;18.91;66.69;98376.82;109227;1231;108916;-89
2023/07/28 11:29:06;;;;;;;7.30;3.80;;;;;;;18.87;66.66;98380.60;109433;1237;97728;-90
2023/07/28 11:31:34;;;;;;;12.50;4.00;;;;;;;18.80;66.63;98386.48;108970;1234;96572;-88
2023/07/28 11:34:01;;;;;;;8.60;3.70;;;;;;;18.70;66.51;98394.24;108683;1236;96680;-89
2023/07/28 11:36:33;;;;;;;32.80;5.60;;;;;;;18.61;66.65;98389.67;109088;1234;96585;-89
2023/07/28 11:39:05;;;;;;;5.60;3.30;;;;;;;18.52;66.66;98390.27;108808;1232;109852;-90
2023/07/28 11:41:34;;;;;;;7.90;3.80;;;;;;;18.42;66.74;98394.54;108790;1234;97389;-89
2023/07/28 11:44:02;;;;;;;9.00;4.00;;;;;;;18.39;66.71;98384.94;108860;1236;107218;-90
2023/07/28 11:46:36;;;;;;;8.50;4.10;;;;;;;18.33;66.82;98387.57;109157;1234;97793;-89
2023/07/28 11:57:31;;;;;;;;;;;;;;;;;;;;;
2023/07/28 12:00:09;;;;;;;6.90;4.20;;;;;;;18.17;67.31;98385.08;108400;1231;108190;-91
2023/07/28 12:02:37;;;;;;;9.10;4.30;;;;;;;18.18;67.31;98382.65;108283;1237;97570;-91
2023/07/28 12:05:52;;;;;;;26.30;6.20;;;;;;;18.15;67.17;98384.08;108608;1232;96483;-91
2023/07/28 12:12:11;;;;;;;10.60;4.50;;;;;;;18.13;67.50;98387.52;108525;1234;96602;-91
2023/07/28 12:15:27;;;;;;;12.90;4.20;;;;;;;18.13;67.29;98386.75;108215;1238;108877;-92
2023/07/28 12:18:18;;;;;;;8.30;3.80;;;;;;;18.12;67.42;98388.48;108189;1233;96761;-91
2023/07/28 12:20:50;;;;;;;12.70;4.50;;;;;;;18.16;67.64;98384.52;108014;1234;96558;-89
2023/07/28 12:23:20;;;;;;;16.80;4.40;;;;;;;18.18;67.58;98383.05;108223;1235;109990;-89
2023/07/28 12:25:55;;;;;;;12.00;3.70;;;;;;;18.21;67.56;98382.30;108019;1238;97595;-90
2023/07/28 12:28:25;;;;;;;7.10;3.90;;;;;;;18.28;67.53;98378.95;107948;1235;106126;-89
2023/07/28 12:30:58;;;;;;;21.90;5.90;;;;;;;18.35;67.58;98371.04;108176;1237;96656;-88
2023/07/28 12:33:28;;;;;;;8.30;4.30;;;;;;;18.38;67.62;98368.61;108319;1237;96592;-90
2023/07/28 12:35:57;;;;;;;11.60;4.30;;;;;;;18.43;67.72;98366.70;108417;1235;110188;-89
2023/07/28 12:38:51;;;;;;;9.20;4.20;;;;;;;18.49;67.87;98369.60;108399;1238;96574;-89
2023/07/28 12:41:21;;;;;;;18.00;5.00;;;;;;;18.54;67.86;98372.67;108366;1238;107627;-89
2023/07/28 12:44:41;;;;;;;11.20;4.70;;;;;;;18.55;67.66;98378.02;108379;1238;96650;-90
2023/07/28 12:48:21;;;;;;;17.50;4.90;;;;;;;18.59;67.87;98373.41;108458;1235;96592;-89
2023/07/28 12:50:50;;;;;;;;;;;;;;;18.62;67.90;98373.42;108366;1237;109772;-90
2023/07/28 12:54:12;;;;;;;18.50;4.90;;;;;;;18.65;67.90;98372.06;108282;1238;96536;-90
2023/07/28 12:56:46;;;;;;;23.00;5.60;;;;;;;18.72;67.93;98370.91;108252;1238;107187;-91
2023/07/28 12:59:58;;;;;;;12.30;4.70;;;;;;;18.77;67.99;98377.48;108242;1238;96617;-91
2023/07/28 13:02:28;;;;;;;22.00;6.50;;;;;;;18.81;67.90;98376.77;108364;1240;96676;-90
2023/07/28 13:04:55;;;;;;;20.00;5.30;;;;;;;18.86;67.90;98381.55;108617;1234;96677;-90
2023/07/28 13:07:23;;;;;;;11.80;4.80;;;;;;;18.88;67.96;98381.30;108572;1246;96784;-90
2023/07/28 13:09:52;;;;;;;8.80;4.80;;;;;;;18.89;68.03;98378.15;108264;1240;107187;-90
2023/07/28 13:12:19;;;;;;;10.60;4.70;;;;;;;18.94;67.96;98381.20;108691;1232;96569;-90
2023/07/28 13:14:49;;;;;;;12.90;5.40;;;;;;;18.98;67.87;98385.73;109001;1235;97645;-90
2023/07/28 13:17:16;;;;;;;11.30;5.00;;;;;;;19.05;68.01;98386.60;108732;1237;96596;-90
2023/07/28 13:19:44;;;;;;;10.80;4.30;;;;;;;19.12;68.18;98384.64;108668;1231;96697;-90
2023/07/28 13:22:11;;;;;;;11.90;4.60;;;;;;;19.17;68.04;98388.02;108507;1244;107512;-90
2023/07/28 13:24:43;;;;;;;7.20;3.80;;;;;;;19.18;67.94;98390.27;108728;1235;96665;-90
2023/07/28 13:27:10;;;;;;;8.90;4.30;;;;;;;19.20;68.05;98390.55;108598;1232;96666;-90
2023/07/28 13:29:37;;;;;;;10.20;4.00;;;;;;;19.22;67.92;98393.91;108519;1232;96493;-89
2023/07/28 13:35:14;;;;;;;13.10;4.80;;;;;;;19.33;68.20;98395.08;108378;1230;107403;-90
2023/07/28 13:37:42;;;;;;;6.20;3.80;;;;;;;19.41;68.26;98394.14;108375;1232;97774;-90
2023/07/28 13:40:11;;;;;;;7.30;4.20;;;;;;;19.49;68.18;98396.04;108291;1236;96560;-89
2023/07/28 13:42:40;;;;;;;6.00;4.00;;;;;;;19.57;68.18;98396.77;108308;1234;109227;-89
2023/07/28 13:45:11;;;;;;;8.80;4.00;;;;;;;19.63;68.21;98397.30;108344;1237;97394;-89
2023/07/28 13:47:38;;;;;;;8.00;3.70;;;;;;;19.72;68.24;98401.01;108544;1244;107511;-91
2023/07/28 13:50:09;;;;;;;8.50;4.00;;;;;;;19.81;68.24;98405.34;108506;1235;96694;-91
2023/07/28 13:52:36;;;;;;;8.60;4.10;;;;;;;19.88;68.20;98403.09;108569;1234;96598;-89
2023/07/28 13:55:04;;;;;;;6.60;4.10;;;;;;;19.92;68.05;98394.27;108606;1235;96645;-89
2023/07/28 13:57:34;;;;;;;7.60;3.90;;;;;;;19.92;68.06;98390.66;108910;1230;96458;-88
2023/07/28 14:00:02;;;;;;;8.50;3.90;;;;;;;19.95;68.29;98384.88;109250;1234;96573;-91
2023/07/28 14:02:32;;;;;;;8.70;4.30;;;;;;;19.98;68.09;98380.63;108612;1232;96569;-90
2023/07/28 14:05:00;;;;;;;8.70;4.20;;;;;;;20.00;68.23;98389.04;108605;1232;96570;-90
2023/07/28 14:07:29;;;;;;;9.00;4.20;;;;;;;20.02;68.12;98388.85;108501;1236;109759;-91
2023/07/28 14:09:58;;;;;;;7.00;3.70;;;;;;;20.03;68.08;98388.50;108572;1232;97736;-90
2023/07/28 14:12:25;;;;;;;8.10;4.00;;;;;;;20.05;68.12;98388.36;108616;1232;108323;-91
2023/07/28 14:14:54;;;;;;;9.90;4.00;;;;;;;20.09;67.99;98391.39;108893;1234;96567;-90
2023/07/28 14:17:22;;;;;;;7.10;4.20;;;;;;;20.12;67.96;98394.63;108855;1234;96568;-91
2023/07/28 14:19:49;;;;;;;9.70;4.50;;;;;;;20.16;68.15;98392.08;108945;1232;97372;-91
2023/07/28 14:22:18;;;;;;;5.30;3.40;;;;;;;20.24;68.11;98392.23;108865;1235;96565;-91
2023/07/28 14:24:47;;;;;;;6.80;3.70;;;;;;;20.29;68.21;98386.25;108397;1232;106931;-92
2023/07/28 14:27:14;;;;;;;6.70;3.80;;;;;;;20.33;68.07;98379.94;108718;1232;96671;-91
2023/07/28 14:29:40;;;;;;;6.20;3.70;;;;;;;20.34;68.17;98379.80;108539;1235;96675;-91
2023/07/28 14:32:19;;;;;;;;;;;;;;;;;;;;;
2023/07/28 14:36:12;;;;;;;6.50;3.70;;;;;;;20.42;68.20;98380.27;108466;1244;97178;-91
2023/07/28 14:38:39;;;;;;;13.90;4.60;;;;;;;20.43;68.23;98370.06;108485;1237;107390;-92
2023/07/28 14:41:06;;;;;;;10.40;3.90;;;;;;;20.42;67.98;98375.65;108479;1235;96579;-92
2023/07/28 14:43:33;;;;;;;8.60;3.80;;;;;;;20.41;68.09;98368.95;108527;1235;96609;-91
2023/07/28 14:46:00;;;;;;;6.50;3.30;;;;;;;20.41;68.17;98367.80;108571;1245;96659;-89
2023/07/28 14:48:27;;;;;;;9.00;3.40;;;;;;;20.42;68.13;98366.23;108606;1234;96556;-89
2023/07/28 14:50:54;;;;;;;9.50;4.30;;;;;;;20.43;68.10;98365.95;108609;1243;96579;-92
2023/07/28 14:53:32;;;;;;;8.60;3.60;;;;;;;20.45;68.32;98367.16;108705;1230;96601;-92
2023/07/28 14:55:59;;;;;;;8.70;4.00;;;;;;;20.47;68.16;98362.88;108525;1235;109259;-91
2023/07/28 14:58:29;;;;;;;8.10;4.00;;;;;;;20.48;68.19;98358.40;108594;1235;96635;-91
2023/07/28 15:00:56;;;;;;;8.30;3.80;;;;;;;20.49;68.17;98358.33;108195;1237;106970;-89
2023/07/28 15:03:26;;;;;;;7.90;3.90;;;;;;;20.51;68.16;98355.94;108327;1243;97998;-89
2023/07/28 15:05:55;;;;;;;8.40;4.30;;;;;;;20.52;68.17;98358.48;108418;1234;97335;-89
2023/07/28 15:08:22;;;;;;;8.70;3.80;;;;;;;20.54;68.13;98354.84;108497;1237;110378;-88
2023/07/28 15:10:49;;;;;;;6.80;3.70;;;;;;;20.56;68.27;98352.20;108311;1232;96694;-90
2023/07/28 15:13:16;;;;;;;7.80;3.60;;;;;;;20.58;68.07;98353.21;108385;1235;97005;-89
2023/07/28 15:15:43;;;;;;;8.80;3.80;;;;;;;20.60;68.30;98354.06;108371;1230;97074;-88
2023/07/28 15:18:10;;;;;;;7.80;3.50;;;;;;;20.63;68.13;98349.96;108282;1237;97549;-89
2023/07/28 15:20:37;;;;;;;6.20;3.50;;;;;;;20.64;68.28;98353.52;108371;1231;96665;-89
2023/07/28 15:23:04;;;;;;;10.10;3.80;;;;;;;20.65;68.02;98347.80;108257;1237;96660;-89
2023/07/28 15:25:31;;;;;;;8.30;4.20;;;;;;;20.68;68.11;98348.60;108409;1242;97810;-89
2023/07/28 15:28:00;;;;;;;9.60;4.40;;;;;;;20.68;68.14;98348.15;108268;1232;96635;-89
2023/07/28 15:30:27;;;;;;;8.30;4.00;;;;;;;20.72;68.19;98345.23;108307;1231;109262;-89
2023/07/28 15:32:57;;;;;;;8.90;4.10;;;;;;;20.74;68.23;98339.17;108375;1231;96960;-90
2023/07/28 15:35:29;;;;;;;7.00;3.90;;;;;;;20.76;68.11;98334.95;108805;1234;105969;-89
2023/07/28 15:37:56;;;;;;;10.80;4.30;;;;;;;20.79;68.27;98341.31;108951;1232;96492;-90
2023/07/28 15:40:23;;;;;;;6.60;3.40;;;;;;;20.79;68.07;98333.73;108786;1234;96531;-90
2023/07/28 15:42:50;;;;;;;6.80;3.40;;;;;;;20.80;68.00;98340.55;108726;1237;108747;-88
2023/07/28 15:45:17;;;;;;;9.20;3.60;;;;;;;20.83;68.10;98341.48;108698;1234;96684;-89
2023/07/28 15:47:44;;;;;;;8.10;4.10;;;;;;;20.88;68.20;98343.02;108505;1237;96490;-89
2023/07/28 15:50:11;;;;;;;7.10;3.90;;;;;;;20.95;68.03;98343.08;108636;1234;97853;-89
2023/07/28 15:52:38;;;;;;;8.60;4.00;;;;;;;21.02;68.17;98341.95;108712;1236;96984;-90
2023/07/28 15:55:06;;;;;;;6.50;3.50;;;;;;;21.08;68.19;98336.88;108748;1234;96981;-89
2023/07/28 15:57:32;;;;;;;7.50;3.80;;;;;;;21.16;68.08;98334.44;108548;1234;96565;-89
2023/07/28 15:59:59;;;;;;;7.80;4.00;;;;;;;21.24;67.90;98334.98;108707;1238;96629;-89
2023/07/28 16:02:25;;;;;;;6.30;3.40;;;;;;;21.30;67.93;98334.23;108818;1234;96489;-89
2023/07/28 16:04:53;;;;;;;7.50;3.70;;;;;;;21.36;67.93;98341.59;108682;1234;96545;-89
2023/07/28 16:07:22;;;;;;;5.80;3.30;;;;;;;21.41;67.94;98346.48;109243;1234;96566;-90
2023/07/28 16:09:49;;;;;;;7.50;3.50;;;;;;;21.46;67.96;98345.38;109156;1231;107390;-90
2023/07/28 16:12:17;;;;;;;6.60;3.60;;;;;;;21.49;67.88;98345.65;109258;1237;96565;-91
2023/07/28 16:14:43;;;;;;;8.10;3.70;;;;;;;21.54;67.84;98343.46;108712;1234;96596;-88
2023/07/28 16:17:10;;;;;;;6.20;3.40;;;;;;;21.57;67.89;98345.95;108529;1235;96668;-90
2023/07/28 16:19:37;;;;;;;6.90;3.60;;;;;;;21.62;67.84;98344.36;108502;1231;96560;-90
2023/07/28 16:22:04;;;;;;;7.90;3.70;;;;;;;21.66;67.73;98345.74;108858;1242;97712;-91
2023/07/28 16:24:31;;;;;;;6.80;3.60;;;;;;;21.70;67.93;98352.23;108792;1230;97049;-91
2023/07/28 16:26:58;;;;;;;7.10;3.70;;;;;;;21.74;67.63;98349.49;108917;1234;96557;-90
2023/07/28 16:29:24;;;;;;;7.80;3.50;;;;;;;21.77;67.86;98351.68;108977;1234;96541;-91
2023/07/28 16:31:51;;;;;;;7.80;3.80;;;;;;;21.81;67.62;98349.19;108768;1232;96681;-90
2023/07/28 16:34:18;;;;;;;9.90;3.60;;;;;;;21.84;67.78;98349.66;108439;1235;96582;-89
2023/07/28 16:36:46;;;;;;;6.40;3.60;;;;;;;21.86;67.56;98349.95;108457;1234;96693;-89
2023/07/28 16:39:13;;;;;;;6.60;3.50;;;;;;;21.87;67.70;98342.95;108882;1234;96627;-89
2023/07/28 16:41:40;;;;;;;8.50;3.90;;;;;;;21.89;67.66;98342.73;108470;1234;97485;-89
2023/07/28 16:44:06;;;;;;;8.30;4.40;;;;;;;21.90;67.73;98336.86;108435;1234;96567;-89
2023/07/28 16:46:33;;;;;;;9.10;4.10;;;;;;;21.87;67.68;98335.39;108484;1234;98744;-89
2023/07/28 16:49:00;;;;;;;9.80;4.00;;;;;;;21.81;67.48;98328.36;108586;1235;109205;-89
2023/07/28 16:51:28;;;;;;;6.80;3.60;;;;;;;21.78;67.51;98334.98;108414;1234;96598;-90
2023/07/28 16:53:55;;;;;;;6.20;3.80;;;;;;;21.75;67.45;98332.98;108391;1230;108662;-89
2023/07/28 16:56:22;;;;;;;8.70;3.60;;;;;;;21.66;67.42;98332.14;108416;1234;97806;-89
2023/07/28 16:58:48;;;;;;;8.10;3.80;;;;;;;21.60;67.29;98326.14;108341;1232;96576;-90
2023/07/28 17:01:15;;;;;;;7.10;3.10;;;;;;;21.53;67.32;98324.44;108349;1244;96640;-89
2023/07/28 17:03:45;;;;;;;7.60;3.80;;;;;;;21.46;67.34;98321.07;108544;1234;96569;-90
2023/07/28 17:06:12;;;;;;;7.90;3.40;;;;;;;21.39;67.31;98329.15;108424;1231;97806;-91
2023/07/28 17:08:39;;;;;;;7.70;4.00;;;;;;;21.34;67.41;98326.92;108504;1232;96669;-89
2023/07/28 17:11:09;;;;;;;7.70;3.90;;;;;;;21.30;67.32;98332.43;109019;1232;96625;-89
2023/07/28 17:13:35;;;;;;;7.10;3.40;;;;;;;21.24;67.32;98343.09;109019;1232;96400;-89
2023/07/28 17:16:02;;;;;;;7.40;3.90;;;;;;;21.16;67.24;98342.17;108780;1232;96672;-90
2023/07/28 17:18:29;;;;;;;7.90;3.90;;;;;;;21.08;67.29;98344.44;108687;1232;96480;-89
2023/07/28 17:20:57;;;;;;;8.70;3.60;;;;;;;21.01;67.19;98346.10;108811;1244;96486;-90
2023/07/28 17:23:23;;;;;;;4.90;3.40;;;;;;;20.91;67.33;98342.41;108750;1232;96563;-90